sensor_id;sensor_type;location;lat;lon;timestamp;pressure;altitude;pressure_sealevel;temperature;humidity
71638;BME280;59485;43.542;-5.676;2023-03-13T00:00:19;101207.63;;;14.12;100.00
71638;BME280;59485;43.542;-5.676;2023-03-13T00:02:50;101195.13;;;14.16;100.00
71638;BME280;59485;43.542;-5.676;2023-03-13T00:05:15;101204.91;;;14.19;100.00
71638;BME280;59485;43.542;-5.676;2023-03-13T00:07:41;101204.91;;;14.19;100.00
71638;BME280;59485;43.542;-5.676;2023-03-13T00:10:12;101190.06;;;14.20;100.00
71638;BME280;59485;43.542;-5.676;2023-03-13T00:15:05;101161.84;;;14.18;100.00
71638;BME280;59485;43.542;-5.676;2023-03-13T00:17:30;101145.50;;;14.16;100.00
71638;BME280;59485;43.542;-5.676;2023-03-13T00:19:57;101142.75;;;14.16;100.00
71638;BME280;59485;43.542;-5.676;2023-03-13T00:22:22;101144.66;;;14.16;100.00
71638;BME280;59485;43.542;-5.676;2023-03-13T00:24:57;101147.59;;;14.14;100.00
71638;BME280;59485;43.542;-5.676;2023-03-13T00:27:23;101141.25;;;14.14;100.00
71638;BME280;59485;43.542;-5.676;2023-03-13T00:29:48;101138.28;;;14.15;100.00
71638;BME280;59485;43.542;-5.676;2023-03-13T00:32:14;101135.72;;;14.14;100.00
71638;BME280;59485;43.542;-5.676;2023-03-13T00:34:49;101121.94;;;14.14;100.00
71638;BME280;59485;43.542;-5.676;2023-03-13T00:37:23;101130.84;;;14.09;100.00
71638;BME280;59485;43.542;-5.676;2023-03-13T00:39:49;101114.22;;;13.96;100.00
71638;BME280;59485;43.542;-5.676;2023-03-13T00:42:14;101119.28;;;13.86;100.00
71638;BME280;59485;43.542;-5.676;2023-03-13T00:44:39;101102.50;;;13.87;100.00
71638;BME280;59485;43.542;-5.676;2023-03-13T00:47:05;101098.72;;;13.88;100.00
71638;BME280;59485;43.542;-5.676;2023-03-13T00:49:31;101102.78;;;13.93;100.00
71638;BME280;59485;43.542;-5.676;2023-03-13T00:52:09;101111.44;;;13.89;100.00
71638;BME280;59485;43.542;-5.676;2023-03-13T00:57:02;101102.09;;;13.84;100.00
71638;BME280;59485;43.542;-5.676;2023-03-13T00:59:28;101088.97;;;13.86;100.00
71638;BME280;59485;43.542;-5.676;2023-03-13T01:01:53;101098.72;;;13.88;100.00
71638;BME280;59485;43.542;-5.676;2023-03-13T01:04:18;101084.34;;;13.93;100.00
71638;BME280;59485;43.542;-5.676;2023-03-13T01:06:44;101083.94;;;14.03;100.00
71638;BME280;59485;43.542;-5.676;2023-03-13T01:09:11;101092.03;;;14.04;100.00
71638;BME280;59485;43.542;-5.676;2023-03-13T01:11:38;101082.44;;;14.00;100.00
71638;BME280;59485;43.542;-5.676;2023-03-13T01:14:05;101077.34;;;13.97;100.00
71638;BME280;59485;43.542;-5.676;2023-03-13T01:16:31;101077.56;;;13.96;100.00
71638;BME280;59485;43.542;-5.676;2023-03-13T01:19:01;101073.72;;;13.97;100.00
71638;BME280;59485;43.542;-5.676;2023-03-13T01:21:27;101061.44;;;13.93;100.00
71638;BME280;59485;43.542;-5.676;2023-03-13T01:23:55;101067.34;;;13.89;100.00
71638;BME280;59485;43.542;-5.676;2023-03-13T01:26:24;101080.06;;;13.90;100.00
71638;BME280;59485;43.542;-5.676;2023-03-13T01:28:56;101078.81;;;13.93;100.00
71638;BME280;59485;43.542;-5.676;2023-03-13T01:31:28;101073.34;;;14.00;100.00
71638;BME280;59485;43.542;-5.676;2023-03-13T01:33:56;101060.84;;;14.04;100.00
71638;BME280;59485;43.542;-5.676;2023-03-13T01:36:31;101062.31;;;14.00;100.00
71638;BME280;59485;43.542;-5.676;2023-03-13T01:38:59;101057.19;;;13.97;100.00
71638;BME280;59485;43.542;-5.676;2023-03-13T01:41:26;101062.69;;;13.97;100.00
71638;BME280;59485;43.542;-5.676;2023-03-13T01:43:57;101064.38;;;13.91;100.00
71638;BME280;59485;43.542;-5.676;2023-03-13T01:52:16;101053.81;;;13.95;100.00
71638;BME280;59485;43.542;-5.676;2023-03-13T01:54:44;101041.75;;;13.96;100.00
71638;BME280;59485;43.542;-5.676;2023-03-13T02:00:14;101041.94;;;13.94;100.00
71638;BME280;59485;43.542;-5.676;2023-03-13T02:05:21;101039.38;;;13.93;100.00
71638;BME280;59485;43.542;-5.676;2023-03-13T02:07:56;101024.56;;;13.94;100.00
71638;BME280;59485;43.542;-5.676;2023-03-13T02:10:23;101022.84;;;13.93;100.00
71638;BME280;59485;43.542;-5.676;2023-03-13T02:15:15;101009.28;;;13.98;100.00
71638;BME280;59485;43.542;-5.676;2023-03-13T02:27:44;101005.00;;;13.88;100.00
71638;BME280;59485;43.542;-5.676;2023-03-13T02:30:11;100999.09;;;13.92;100.00
71638;BME280;59485;43.542;-5.676;2023-03-13T02:32:37;100991.47;;;13.94;100.00
71638;BME280;59485;43.542;-5.676;2023-03-13T02:35:06;100981.31;;;13.94;100.00
71638;BME280;59485;43.542;-5.676;2023-03-13T02:37:32;100973.66;;;13.89;100.00
71638;BME280;59485;43.542;-5.676;2023-03-13T02:39:59;100960.72;;;13.90;100.00
71638;BME280;59485;43.542;-5.676;2023-03-13T02:42:25;100967.09;;;13.90;100.00
71638;BME280;59485;43.542;-5.676;2023-03-13T02:44:52;100967.47;;;13.87;100.00
71638;BME280;59485;43.542;-5.676;2023-03-13T02:47:21;100964.97;;;13.86;100.00
71638;BME280;59485;43.542;-5.676;2023-03-13T02:49:47;100952.84;;;13.87;100.00
71638;BME280;59485;43.542;-5.676;2023-03-13T02:52:15;100949.47;;;13.85;100.00
71638;BME280;59485;43.542;-5.676;2023-03-13T02:54:41;100954.75;;;13.80;100.00
71638;BME280;59485;43.542;-5.676;2023-03-13T02:57:09;100950.53;;;13.77;100.00
71638;BME280;59485;43.542;-5.676;2023-03-13T02:59:34;100926.59;;;13.84;100.00
71638;BME280;59485;43.542;-5.676;2023-03-13T03:01:59;100919.59;;;13.88;100.00
71638;BME280;59485;43.542;-5.676;2023-03-13T03:04:25;100920.03;;;13.85;100.00
71638;BME280;59485;43.542;-5.676;2023-03-13T03:06:51;100916.16;;;13.80;100.00
71638;BME280;59485;43.542;-5.676;2023-03-13T03:09:17;100898.19;;;13.84;100.00
71638;BME280;59485;43.542;-5.676;2023-03-13T03:11:42;100904.09;;;13.81;100.00
71638;BME280;59485;43.542;-5.676;2023-03-13T03:14:08;100883.75;;;13.82;100.00
71638;BME280;59485;43.542;-5.676;2023-03-13T03:16:34;100885.25;;;13.84;100.00
71638;BME280;59485;43.542;-5.676;2023-03-13T03:19:00;100889.66;;;13.79;100.00
71638;BME280;59485;43.542;-5.676;2023-03-13T03:21:25;100883.53;;;13.77;100.00
71638;BME280;59485;43.542;-5.676;2023-03-13T03:23:51;100872.28;;;13.78;100.00
71638;BME280;59485;43.542;-5.676;2023-03-13T03:26:16;100868.91;;;13.76;100.00
71638;BME280;59485;43.542;-5.676;2023-03-13T03:28:42;100869.97;;;13.69;100.00
71638;BME280;59485;43.542;-5.676;2023-03-13T03:31:08;100866.38;;;13.68;100.00
71638;BME280;59485;43.542;-5.676;2023-03-13T03:33:34;100860.63;;;13.70;100.00
71638;BME280;59485;43.542;-5.676;2023-03-13T03:36:00;100860.63;;;13.70;100.00
71638;BME280;59485;43.542;-5.676;2023-03-13T03:38:26;100852.34;;;13.70;100.00
71638;BME280;59485;43.542;-5.676;2023-03-13T03:40:51;100854.06;;;13.71;100.00
71638;BME280;59485;43.542;-5.676;2023-03-13T03:43:17;100848.13;;;13.67;100.00
71638;BME280;59485;43.542;-5.676;2023-03-13T03:45:42;100840.06;;;13.66;100.00
71638;BME280;59485;43.542;-5.676;2023-03-13T03:48:07;100823.97;;;13.69;100.00
71638;BME280;59485;43.542;-5.676;2023-03-13T03:50:33;100814.63;;;13.70;100.00
71638;BME280;59485;43.542;-5.676;2023-03-13T03:52:58;100820.38;;;13.69;100.00
71638;BME280;59485;43.542;-5.676;2023-03-13T03:55:23;100815.94;;;13.68;100.00
71638;BME280;59485;43.542;-5.676;2023-03-13T03:57:49;100815.28;;;13.66;100.00
71638;BME280;59485;43.542;-5.676;2023-03-13T04:00:14;100811.88;;;13.70;100.00
71638;BME280;59485;43.542;-5.676;2023-03-13T04:02:40;100813.59;;;13.71;100.00
71638;BME280;59485;43.542;-5.676;2023-03-13T04:05:06;100805.31;;;13.71;100.00
71638;BME280;59485;43.542;-5.676;2023-03-13T04:07:31;100801.72;;;13.71;100.00
71638;BME280;59485;43.542;-5.676;2023-03-13T04:09:56;100802.56;;;13.71;100.00
71638;BME280;59485;43.542;-5.676;2023-03-13T04:12:22;100803.22;;;13.73;100.00
71638;BME280;59485;43.542;-5.676;2023-03-13T04:14:47;100821.84;;;13.71;100.00
71638;BME280;59485;43.542;-5.676;2023-03-13T04:17:13;100821.44;;;13.74;100.00
71638;BME280;59485;43.542;-5.676;2023-03-13T04:19:38;100822.09;;;13.76;100.00
71638;BME280;59485;43.542;-5.676;2023-03-13T04:22:04;100826.31;;;13.79;100.00
71638;BME280;59485;43.542;-5.676;2023-03-13T04:24:29;100826.53;;;13.84;100.00
71638;BME280;59485;43.542;-5.676;2023-03-13T04:26:54;100829.09;;;13.85;100.00
71638;BME280;59485;43.542;-5.676;2023-03-13T04:29:20;100821.44;;;13.87;100.00
71638;BME280;59485;43.542;-5.676;2023-03-13T04:31:45;100818.91;;;13.93;100.00
71638;BME280;59485;43.542;-5.676;2023-03-13T04:34:11;100824.84;;;14.09;100.00
71638;BME280;59485;43.542;-5.676;2023-03-13T04:36:36;100819.56;;;14.21;100.00
71638;BME280;59485;43.542;-5.676;2023-03-13T04:39:01;100831.63;;;14.26;100.00
71638;BME280;59485;43.542;-5.676;2023-03-13T04:41:27;100822.50;;;14.33;100.00
71638;BME280;59485;43.542;-5.676;2023-03-13T04:43:52;100820.38;;;14.41;100.00
71638;BME280;59485;43.542;-5.676;2023-03-13T04:46:18;100821.03;;;14.43;100.00
71638;BME280;59485;43.542;-5.676;2023-03-13T04:48:43;100825.69;;;14.43;100.00
71638;BME280;59485;43.542;-5.676;2023-03-13T04:51:08;100828.66;;;14.41;100.00
71638;BME280;59485;43.542;-5.676;2023-03-13T04:53:34;100829.06;;;14.38;100.00
71638;BME280;59485;43.542;-5.676;2023-03-13T04:55:59;100841.59;;;14.34;100.00
71638;BME280;59485;43.542;-5.676;2023-03-13T04:58:25;100838.81;;;14.34;100.00
71638;BME280;59485;43.542;-5.676;2023-03-13T05:00:51;100829.06;;;14.32;100.00
71638;BME280;59485;43.542;-5.676;2023-03-13T05:03:16;100838.41;;;14.31;100.00
71638;BME280;59485;43.542;-5.676;2023-03-13T05:05:42;100849.00;;;14.27;100.00
71638;BME280;59485;43.542;-5.676;2023-03-13T05:08:07;100839.25;;;14.24;100.00
71638;BME280;59485;43.542;-5.676;2023-03-13T05:10:34;100846.91;;;14.22;100.00
71638;BME280;59485;43.542;-5.676;2023-03-13T05:13:00;100844.78;;;14.18;100.00
71638;BME280;59485;43.542;-5.676;2023-03-13T05:15:25;100840.53;;;14.15;100.00
71638;BME280;59485;43.542;-5.676;2023-03-13T05:17:51;100841.19;;;14.11;100.00
71638;BME280;59485;43.542;-5.676;2023-03-13T05:20:16;100851.38;;;14.04;100.00
71638;BME280;59485;43.542;-5.676;2023-03-13T05:22:41;100847.72;;;13.97;100.00
71638;BME280;59485;43.542;-5.676;2023-03-13T05:27:33;100828.44;;;13.83;100.00
71638;BME280;59485;43.542;-5.676;2023-03-13T05:29:59;100821.84;;;13.78;100.00
71638;BME280;59485;43.542;-5.676;2023-03-13T05:32:24;100810.22;;;13.76;100.00
71638;BME280;59485;43.542;-5.676;2023-03-13T05:34:49;100818.88;;;13.73;100.00
71638;BME280;59485;43.542;-5.676;2023-03-13T05:37:15;100809.78;;;13.72;100.00
71638;BME280;59485;43.542;-5.676;2023-03-13T05:39:40;100800.00;;;13.70;100.00
71638;BME280;59485;43.542;-5.676;2023-03-13T05:42:06;100800.25;;;13.68;100.00
71638;BME280;59485;43.542;-5.676;2023-03-13T05:44:31;100803.22;;;13.67;100.00
71638;BME280;59485;43.542;-5.676;2023-03-13T05:46:56;100799.59;;;13.66;100.00
71638;BME280;59485;43.542;-5.676;2023-03-13T05:49:22;100788.16;;;13.69;100.00
71638;BME280;59485;43.542;-5.676;2023-03-13T05:51:56;100783.28;;;13.71;100.00
71638;BME280;59485;43.542;-5.676;2023-03-13T05:54:21;100797.25;;;13.70;100.00
71638;BME280;59485;43.542;-5.676;2023-03-13T05:56:47;100798.09;;;13.70;100.00
71638;BME280;59485;43.542;-5.676;2023-03-13T05:59:14;100798.97;;;13.71;100.00
71638;BME280;59485;43.542;-5.676;2023-03-13T06:01:39;100798.09;;;13.70;100.00
71638;BME280;59485;43.542;-5.676;2023-03-13T06:04:05;100798.34;;;13.69;100.00
71638;BME280;59485;43.542;-5.676;2023-03-13T06:06:30;100780.31;;;13.66;100.00
71638;BME280;59485;43.542;-5.676;2023-03-13T06:08:55;100777.34;;;13.61;100.00
71638;BME280;59485;43.542;-5.676;2023-03-13T06:11:20;100776.72;;;13.59;100.00
71638;BME280;59485;43.542;-5.676;2023-03-13T06:13:46;100772.88;;;13.60;100.00
71638;BME280;59485;43.542;-5.676;2023-03-13T06:16:11;100761.44;;;13.57;100.00
71638;BME280;59485;43.542;-5.676;2023-03-13T06:18:36;100765.66;;;13.52;100.00
71638;BME280;59485;43.542;-5.676;2023-03-13T06:21:11;100752.75;;;13.53;100.00
71638;BME280;59485;43.542;-5.676;2023-03-13T06:23:45;100751.47;;;13.36;100.00
71638;BME280;59485;43.542;-5.676;2023-03-13T06:28:45;100737.69;;;13.36;100.00
71638;BME280;59485;43.542;-5.676;2023-03-13T06:31:10;100745.31;;;13.27;100.00
71638;BME280;59485;43.542;-5.676;2023-03-13T06:33:36;100740.84;;;13.20;100.00
71638;BME280;59485;43.542;-5.676;2023-03-13T06:36:02;100747.66;;;13.24;100.00
71638;BME280;59485;43.542;-5.676;2023-03-13T06:38:27;100742.53;;;13.14;100.00
71638;BME280;59485;43.542;-5.676;2023-03-13T06:40:53;100738.94;;;13.13;100.00
71638;BME280;59485;43.542;-5.676;2023-03-13T06:43:19;100748.88;;;13.14;100.00
71638;BME280;59485;43.542;-5.676;2023-03-13T06:45:44;100738.25;;;13.11;100.00
71638;BME280;59485;43.542;-5.676;2023-03-13T06:48:10;100742.91;;;13.11;100.00
71638;BME280;59485;43.542;-5.676;2023-03-13T06:50:38;100727.66;;;13.02;100.00
71638;BME280;59485;43.542;-5.676;2023-03-13T06:53:04;100730.41;;;13.02;100.00
71638;BME280;59485;43.542;-5.676;2023-03-13T06:55:29;100727.44;;;13.10;100.00
71638;BME280;59485;43.542;-5.676;2023-03-13T06:57:55;100725.94;;;13.07;100.00
71638;BME280;59485;43.542;-5.676;2023-03-13T07:00:20;100723.00;;;13.02;100.00
71638;BME280;59485;43.542;-5.676;2023-03-13T07:02:46;100711.72;;;12.91;100.00
71638;BME280;59485;43.542;-5.676;2023-03-13T07:05:11;100714.53;;;12.97;100.00
71638;BME280;59485;43.542;-5.676;2023-03-13T07:07:39;100724.69;;;13.03;100.00
71638;BME280;59485;43.542;-5.676;2023-03-13T07:10:04;100708.19;;;13.03;100.00
71638;BME280;59485;43.542;-5.676;2023-03-13T07:12:29;100723.19;;;12.94;100.00
71638;BME280;59485;43.542;-5.676;2023-03-13T07:14:55;100729.91;;;12.85;100.00
71638;BME280;59485;43.542;-5.676;2023-03-13T07:17:20;100705.63;;;12.95;100.00
71638;BME280;59485;43.542;-5.676;2023-03-13T07:19:45;100694.41;;;13.03;100.00
71638;BME280;59485;43.542;-5.676;2023-03-13T07:22:11;100693.56;;;13.03;100.00
71638;BME280;59485;43.542;-5.676;2023-03-13T07:24:36;100670.06;;;13.07;100.00
71638;BME280;59485;43.542;-5.676;2023-03-13T07:27:02;100674.31;;;13.09;100.00
71638;BME280;59485;43.542;-5.676;2023-03-13T07:29:27;100664.19;;;13.17;100.00
71638;BME280;59485;43.542;-5.676;2023-03-13T07:31:53;100654.66;;;13.19;100.00
71638;BME280;59485;43.542;-5.676;2023-03-13T07:34:18;100664.22;;;13.23;100.00
71638;BME280;59485;43.542;-5.676;2023-03-13T07:36:43;100658.06;;;13.28;100.00
71638;BME280;59485;43.542;-5.676;2023-03-13T07:39:09;100665.06;;;13.30;100.00
71638;BME280;59485;43.542;-5.676;2023-03-13T07:41:34;100671.41;;;13.37;100.00
71638;BME280;59485;43.542;-5.676;2023-03-13T07:43:59;100654.88;;;13.44;100.00
71638;BME280;59485;43.542;-5.676;2023-03-13T07:46:25;100656.34;;;13.53;100.00
71638;BME280;59485;43.542;-5.676;2023-03-13T07:48:51;100680.72;;;13.56;100.00
71638;BME280;59485;43.542;-5.676;2023-03-13T07:51:23;100713.38;;;13.59;100.00
71638;BME280;59485;43.542;-5.676;2023-03-13T07:53:50;100694.94;;;13.66;100.00
71638;BME280;59485;43.542;-5.676;2023-03-13T07:56:16;100677.75;;;13.77;100.00
71638;BME280;59485;43.542;-5.676;2023-03-13T07:58:42;100677.53;;;13.85;100.00
71638;BME280;59485;43.542;-5.676;2023-03-13T08:01:08;100685.56;;;13.94;100.00
71638;BME280;59485;43.542;-5.676;2023-03-13T08:03:34;100683.22;;;14.04;100.00
71638;BME280;59485;43.542;-5.676;2023-03-13T08:06:00;100688.72;;;14.10;100.00
71638;BME280;59485;43.542;-5.676;2023-03-13T08:08:26;100684.88;;;14.18;100.00
71638;BME280;59485;43.542;-5.676;2023-03-13T08:10:51;100680.41;;;14.23;100.00
71638;BME280;59485;43.542;-5.676;2023-03-13T08:13:17;100672.97;;;14.24;100.00
71638;BME280;59485;43.542;-5.676;2023-03-13T08:15:42;100661.53;;;14.27;100.00
71638;BME280;59485;43.542;-5.676;2023-03-13T08:18:07;100655.75;;;14.35;100.00
71638;BME280;59485;43.542;-5.676;2023-03-13T08:20:33;100667.03;;;14.40;100.00
71638;BME280;59485;43.542;-5.676;2023-03-13T08:22:58;100669.97;;;14.45;100.00
71638;BME280;59485;43.542;-5.676;2023-03-13T08:25:24;100667.63;;;14.49;100.00
71638;BME280;59485;43.542;-5.676;2023-03-13T08:27:49;100669.72;;;14.53;100.00
71638;BME280;59485;43.542;-5.676;2023-03-13T08:30:15;100662.25;;;14.60;100.00
71638;BME280;59485;43.542;-5.676;2023-03-13T08:32:40;100676.25;;;14.59;100.00
71638;BME280;59485;43.542;-5.676;2023-03-13T08:35:05;100681.38;;;14.55;100.00
71638;BME280;59485;43.542;-5.676;2023-03-13T08:37:31;100693.66;;;14.66;100.00
71638;BME280;59485;43.542;-5.676;2023-03-13T08:39:56;100684.72;;;14.71;100.00
71638;BME280;59485;43.542;-5.676;2023-03-13T08:42:22;100664.28;;;14.85;100.00
71638;BME280;59485;43.542;-5.676;2023-03-13T08:44:47;100634.25;;;14.95;100.00
71638;BME280;59485;43.542;-5.676;2023-03-13T08:47:13;100630.16;;;15.04;100.00
71638;BME280;59485;43.542;-5.676;2023-03-13T08:49:38;100654.13;;;15.10;100.00
71638;BME280;59485;43.542;-5.676;2023-03-13T08:52:04;100634.69;;;15.23;100.00
71638;BME280;59485;43.542;-5.676;2023-03-13T08:54:30;100624.38;;;15.37;100.00
71638;BME280;59485;43.542;-5.676;2023-03-13T08:56:55;100615.34;;;15.48;100.00
71638;BME280;59485;43.542;-5.676;2023-03-13T08:59:21;100625.69;;;15.59;100.00
71638;BME280;59485;43.542;-5.676;2023-03-13T09:01:46;100624.09;;;15.70;100.00
71638;BME280;59485;43.542;-5.676;2023-03-13T09:04:11;100612.31;;;15.81;100.00
71638;BME280;59485;43.542;-5.676;2023-03-13T09:06:37;100609.38;;;15.94;100.00
71638;BME280;59485;43.542;-5.676;2023-03-13T09:09:03;100609.03;;;16.09;100.00
71638;BME280;59485;43.542;-5.676;2023-03-13T09:11:29;100615.94;;;16.18;100.00
71638;BME280;59485;43.542;-5.676;2023-03-13T09:13:55;100599.69;;;16.22;100.00
71638;BME280;59485;43.542;-5.676;2023-03-13T09:16:24;100599.88;;;16.27;100.00
71638;BME280;59485;43.542;-5.676;2023-03-13T09:18:50;100600.09;;;16.25;100.00
71638;BME280;59485;43.542;-5.676;2023-03-13T09:21:17;100573.75;;;16.23;100.00
71638;BME280;59485;43.542;-5.676;2023-03-13T09:23:43;100584.81;;;16.23;100.00
71638;BME280;59485;43.542;-5.676;2023-03-13T09:26:08;100597.69;;;16.29;100.00
71638;BME280;59485;43.542;-5.676;2023-03-13T09:28:34;100603.75;;;16.37;100.00
71638;BME280;59485;43.542;-5.676;2023-03-13T09:31:06;100621.59;;;16.41;100.00
71638;BME280;59485;43.542;-5.676;2023-03-13T09:33:32;100614.88;;;16.49;100.00
71638;BME280;59485;43.542;-5.676;2023-03-13T09:35:58;100602.66;;;16.57;100.00
71638;BME280;59485;43.542;-5.676;2023-03-13T09:38:23;100615.06;;;16.54;100.00
71638;BME280;59485;43.542;-5.676;2023-03-13T09:40:49;100603.59;;;16.50;100.00
71638;BME280;59485;43.542;-5.676;2023-03-13T09:45:46;100594.44;;;16.50;100.00
71638;BME280;59485;43.542;-5.676;2023-03-13T09:48:33;100601.59;;;16.39;100.00
71638;BME280;59485;43.542;-5.676;2023-03-13T09:51:02;100601.56;;;16.28;100.00
71638;BME280;59485;43.542;-5.676;2023-03-13T09:53:36;100601.09;;;16.12;100.00
71638;BME280;59485;43.542;-5.676;2023-03-13T09:56:03;100616.91;;;16.05;100.00
71638;BME280;59485;43.542;-5.676;2023-03-13T09:58:29;100604.88;;;16.00;100.00
71638;BME280;59485;43.542;-5.676;2023-03-13T10:00:59;100592.34;;;15.97;100.00
71638;BME280;59485;43.542;-5.676;2023-03-13T10:03:28;100577.44;;;15.98;100.00
71638;BME280;59485;43.542;-5.676;2023-03-13T10:05:54;100601.25;;;15.99;100.00
71638;BME280;59485;43.542;-5.676;2023-03-13T10:08:22;100606.25;;;15.91;100.00
71638;BME280;59485;43.542;-5.676;2023-03-13T10:10:52;100609.91;;;15.85;100.00
71638;BME280;59485;43.542;-5.676;2023-03-13T10:16:00;100606.16;;;15.79;100.00
71638;BME280;59485;43.542;-5.676;2023-03-13T10:18:28;100605.72;;;15.82;100.00
71638;BME280;59485;43.542;-5.676;2023-03-13T10:21:00;100602.31;;;15.80;100.00
71638;BME280;59485;43.542;-5.676;2023-03-13T10:25:54;100591.34;;;15.73;100.00
71638;BME280;59485;43.542;-5.676;2023-03-13T10:28:19;100591.34;;;15.73;100.00
71638;BME280;59485;43.542;-5.676;2023-03-13T10:30:50;100573.91;;;15.73;100.00
71638;BME280;59485;43.542;-5.676;2023-03-13T10:35:43;100567.84;;;15.64;100.00
71638;BME280;59485;43.542;-5.676;2023-03-13T10:38:10;100574.38;;;15.70;100.00
71638;BME280;59485;43.542;-5.676;2023-03-13T10:40:36;100564.78;;;15.72;100.00
71638;BME280;59485;43.542;-5.676;2023-03-13T10:43:06;100555.34;;;15.80;100.00
71638;BME280;59485;43.542;-5.676;2023-03-13T10:45:35;100544.41;;;15.85;100.00
71638;BME280;59485;43.542;-5.676;2023-03-13T10:48:12;100543.88;;;15.95;100.00
71638;BME280;59485;43.542;-5.676;2023-03-13T10:50:40;100550.56;;;16.05;100.00
71638;BME280;59485;43.542;-5.676;2023-03-13T10:53:07;100556.16;;;16.17;100.00
71638;BME280;59485;43.542;-5.676;2023-03-13T10:55:43;100539.16;;;16.32;100.00
71638;BME280;59485;43.542;-5.676;2023-03-13T10:58:12;100549.19;;;16.44;100.00
71638;BME280;59485;43.542;-5.676;2023-03-13T11:00:41;100537.06;;;16.57;100.00
71638;BME280;59485;43.542;-5.676;2023-03-13T11:03:17;100522.84;;;16.72;100.00
71638;BME280;59485;43.542;-5.676;2023-03-13T11:05:56;100515.63;;;16.82;100.00
71638;BME280;59485;43.542;-5.676;2023-03-13T11:08:23;100532.66;;;16.98;100.00
71638;BME280;59485;43.542;-5.676;2023-03-13T11:10:50;100502.94;;;17.16;100.00
71638;BME280;59485;43.542;-5.676;2023-03-13T11:13:25;100525.81;;;17.23;100.00
71638;BME280;59485;43.542;-5.676;2023-03-13T11:15:52;100520.75;;;17.32;100.00
71638;BME280;59485;43.542;-5.676;2023-03-13T11:18:23;100505.06;;;17.38;100.00
71638;BME280;59485;43.542;-5.676;2023-03-13T11:20:50;100502.34;;;17.26;100.00
71638;BME280;59485;43.542;-5.676;2023-03-13T11:23:29;100489.06;;;17.05;100.00
71638;BME280;59485;43.542;-5.676;2023-03-13T11:26:15;100481.72;;;17.10;100.00
71638;BME280;59485;43.542;-5.676;2023-03-13T11:28:52;100479.94;;;17.16;100.00
71638;BME280;59485;43.542;-5.676;2023-03-13T11:31:36;100470.88;;;17.32;100.00
71638;BME280;59485;43.542;-5.676;2023-03-13T11:44:11;100449.50;;;18.08;100.00
71638;BME280;59485;43.542;-5.676;2023-03-13T11:51:57;100428.22;;;18.42;100.00
71638;BME280;59485;43.542;-5.676;2023-03-13T11:57:11;100423.97;;;18.67;100.00
71638;BME280;59485;43.542;-5.676;2023-03-13T12:04:42;100427.66;;;18.90;100.00
71638;BME280;59485;43.542;-5.676;2023-03-13T12:07:26;100435.91;;;19.01;100.00
71638;BME280;59485;43.542;-5.676;2023-03-13T12:09:54;100446.94;;;19.13;100.00
71638;BME280;59485;43.542;-5.676;2023-03-13T12:14:52;100424.47;;;19.15;100.00
71638;BME280;59485;43.542;-5.676;2023-03-13T12:17:34;100432.25;;;19.18;100.00
71638;BME280;59485;43.542;-5.676;2023-03-13T12:22:35;100461.50;;;19.20;100.00
71638;BME280;59485;43.542;-5.676;2023-03-13T12:25:26;100464.44;;;19.30;100.00
71638;BME280;59485;43.542;-5.676;2023-03-13T12:30:39;100476.78;;;19.56;100.00
71638;BME280;59485;43.542;-5.676;2023-03-13T12:33:18;100467.88;;;19.76;100.00
71638;BME280;59485;43.542;-5.676;2023-03-13T12:35:46;100482.19;;;19.84;98.94
71638;BME280;59485;43.542;-5.676;2023-03-13T12:38:21;100477.97;;;20.52;74.82
71638;BME280;59485;43.542;-5.676;2023-03-13T12:43:33;100501.84;;;21.02;65.42
71638;BME280;59485;43.542;-5.676;2023-03-13T12:51:22;100489.28;;;21.05;61.64
71638;BME280;59485;43.542;-5.676;2023-03-13T12:59:14;100551.84;;;20.60;58.87
71638;BME280;59485;43.542;-5.676;2023-03-13T13:01:41;100511.97;;;20.54;62.30
71638;BME280;59485;43.542;-5.676;2023-03-13T13:04:51;100497.47;;;20.52;62.31
71638;BME280;59485;43.542;-5.676;2023-03-13T13:06:59;100499.09;;;20.48;55.03
71638;BME280;59485;43.542;-5.676;2023-03-13T13:09:27;100510.25;;;20.48;55.99
71638;BME280;59485;43.542;-5.676;2023-03-13T13:11:55;100526.28;;;20.41;59.05
71638;BME280;59485;43.542;-5.676;2023-03-13T13:17:12;100580.59;;;20.00;68.21
71638;BME280;59485;43.542;-5.676;2023-03-13T13:24:50;100589.91;;;18.60;96.31
71638;BME280;59485;43.542;-5.676;2023-03-13T13:30:31;100630.97;;;17.30;100.00
71638;BME280;59485;43.542;-5.676;2023-03-13T13:32:52;100662.81;;;16.98;100.00
71638;BME280;59485;43.542;-5.676;2023-03-13T13:37:49;100698.28;;;16.16;100.00
71638;BME280;59485;43.542;-5.676;2023-03-13T13:47:43;100712.19;;;14.46;100.00
71638;BME280;59485;43.542;-5.676;2023-03-13T13:50:18;100703.06;;;14.45;100.00
71638;BME280;59485;43.542;-5.676;2023-03-13T13:52:44;100755.03;;;14.42;100.00
71638;BME280;59485;43.542;-5.676;2023-03-13T13:58:03;100775.88;;;14.95;100.00
71638;BME280;59485;43.542;-5.676;2023-03-13T14:00:40;100842.94;;;15.09;100.00
71638;BME280;59485;43.542;-5.676;2023-03-13T14:03:15;100836.09;;;15.18;100.00
71638;BME280;59485;43.542;-5.676;2023-03-13T14:05:42;100787.63;;;15.22;100.00
71638;BME280;59485;43.542;-5.676;2023-03-13T14:08:24;100814.41;;;15.22;100.00
71638;BME280;59485;43.542;-5.676;2023-03-13T14:10:53;100866.28;;;15.13;100.00
71638;BME280;59485;43.542;-5.676;2023-03-13T14:13:28;100900.09;;;14.95;100.00
71638;BME280;59485;43.542;-5.676;2023-03-13T14:15:54;100885.44;;;14.95;100.00
71638;BME280;59485;43.542;-5.676;2023-03-13T14:18:29;100833.69;;;14.84;100.00
71638;BME280;59485;43.542;-5.676;2023-03-13T14:20:59;100808.44;;;14.74;100.00
71638;BME280;59485;43.542;-5.676;2023-03-13T14:25:56;100828.59;;;14.81;100.00